sensor_id;sensor_type;location;lat;lon;timestamp;P1;durP1;ratioP1;P2;durP2;ratioP2
47894;SDS011;33653;52.302;8.134;2022-09-20T00:01:38;5.20;;;1.50;;
47894;SDS011;33653;52.302;8.134;2022-09-20T00:04:06;9.02;;;1.33;;
47894;SDS011;33653;52.302;8.134;2022-09-20T00:06:35;3.17;;;1.20;;
47894;SDS011;33653;52.302;8.134;2022-09-20T00:09:04;1.73;;;1.10;;
47894;SDS011;33653;52.302;8.134;2022-09-20T00:11:33;5.30;;;1.38;;
47894;SDS011;33653;52.302;8.134;2022-09-20T00:14:03;5.75;;;1.55;;
47894;SDS011;33653;52.302;8.134;2022-09-20T00:16:36;3.50;;;1.35;;
47894;SDS011;33653;52.302;8.134;2022-09-20T00:19:07;2.55;;;1.15;;
47894;SDS011;33653;52.302;8.134;2022-09-20T00:21:38;2.25;;;1.00;;
47894;SDS011;33653;52.302;8.134;2022-09-20T00:24:06;3.05;;;1.55;;
47894;SDS011;33653;52.302;8.134;2022-09-20T00:26:36;4.78;;;1.30;;
47894;SDS011;33653;52.302;8.134;2022-09-20T00:29:04;2.78;;;1.13;;
47894;SDS011;33653;52.302;8.134;2022-09-20T00:31:32;1.50;;;1.00;;
47894;SDS011;33653;52.302;8.134;2022-09-20T00:34:03;2.88;;;1.27;;
47894;SDS011;33653;52.302;8.134;2022-09-20T00:37:09;5.07;;;0.90;;
47894;SDS011;33653;52.302;8.134;2022-09-20T00:39:37;3.00;;;1.17;;
47894;SDS011;33653;52.302;8.134;2022-09-20T00:42:05;5.32;;;1.20;;
47894;SDS011;33653;52.302;8.134;2022-09-20T00:44:40;3.78;;;1.38;;
47894;SDS011;33653;52.302;8.134;2022-09-20T00:47:12;1.55;;;1.02;;
47894;SDS011;33653;52.302;8.134;2022-09-20T00:50:04;1.45;;;0.70;;
47894;SDS011;33653;52.302;8.134;2022-09-20T00:53:03;3.95;;;1.52;;
47894;SDS011;33653;52.302;8.134;2022-09-20T00:55:35;3.38;;;1.27;;
47894;SDS011;33653;52.302;8.134;2022-09-20T00:58:11;5.43;;;1.27;;
47894;SDS011;33653;52.302;8.134;2022-09-20T01:00:41;0.90;;;0.90;;
47894;SDS011;33653;52.302;8.134;2022-09-20T01:03:11;0.60;;;0.60;;
47894;SDS011;33653;52.302;8.134;2022-09-20T01:05:42;2.53;;;0.90;;
47894;SDS011;33653;52.302;8.134;2022-09-20T01:08:10;0.95;;;0.80;;
47894;SDS011;33653;52.302;8.134;2022-09-20T01:10:39;0.90;;;0.90;;
47894;SDS011;33653;52.302;8.134;2022-09-20T01:13:08;2.80;;;1.63;;
47894;SDS011;33653;52.302;8.134;2022-09-20T01:15:36;1.67;;;1.00;;
47894;SDS011;33653;52.302;8.134;2022-09-20T01:18:06;1.15;;;1.05;;
47894;SDS011;33653;52.302;8.134;2022-09-20T01:20:37;0.95;;;0.90;;
47894;SDS011;33653;52.302;8.134;2022-09-20T01:26:27;3.97;;;1.40;;
47894;SDS011;33653;52.302;8.134;2022-09-20T01:30:04;1.38;;;1.17;;
47894;SDS011;33653;52.302;8.134;2022-09-20T01:43:51;1.30;;;0.95;;
47894;SDS011;33653;52.302;8.134;2022-09-20T01:46:55;1.95;;;0.80;;
47894;SDS011;33653;52.302;8.134;2022-09-20T01:53:15;3.17;;;1.23;;
47894;SDS011;33653;52.302;8.134;2022-09-20T01:56:47;1.00;;;0.95;;
47894;SDS011;33653;52.302;8.134;2022-09-20T02:00:05;1.30;;;0.90;;
47894;SDS011;33653;52.302;8.134;2022-09-20T02:21:35;3.33;;;1.05;;
47894;SDS011;33653;52.302;8.134;2022-09-20T02:27:33;6.00;;;0.98;;
47894;SDS011;33653;52.302;8.134;2022-09-20T02:39:30;3.60;;;1.20;;
47894;SDS011;33653;52.302;8.134;2022-09-20T02:48:10;0.90;;;0.90;;
47894;SDS011;33653;52.302;8.134;2022-09-20T02:51:00;3.10;;;0.95;;
47894;SDS011;33653;52.302;8.134;2022-09-20T02:57:32;9.27;;;1.63;;
47894;SDS011;33653;52.302;8.134;2022-09-20T03:00:53;0.98;;;0.90;;
47894;SDS011;33653;52.302;8.134;2022-09-20T03:12:51;2.50;;;1.00;;
47894;SDS011;33653;52.302;8.134;2022-09-20T03:16:06;2.17;;;0.93;;
47894;SDS011;33653;52.302;8.134;2022-09-20T03:31:29;4.22;;;0.98;;
47894;SDS011;33653;52.302;8.134;2022-09-20T03:34:53;2.05;;;1.48;;
47894;SDS011;33653;52.302;8.134;2022-09-20T04:11:30;3.05;;;1.42;;
47894;SDS011;33653;52.302;8.134;2022-09-20T04:23:29;1.50;;;1.15;;
47894;SDS011;33653;52.302;8.134;2022-09-20T04:26:35;2.95;;;1.27;;
47894;SDS011;33653;52.302;8.134;2022-09-20T04:32:35;1.25;;;1.15;;
47894;SDS011;33653;52.302;8.134;2022-09-20T04:38:31;1.60;;;1.20;;
47894;SDS011;33653;52.302;8.134;2022-09-20T04:41:07;4.47;;;1.40;;
47894;SDS011;33653;52.302;8.134;2022-09-20T04:51:03;3.08;;;1.45;;
47894;SDS011;33653;52.302;8.134;2022-09-20T04:59:02;1.48;;;0.90;;
47894;SDS011;33653;52.302;8.134;2022-09-20T05:10:52;1.95;;;1.60;;
47894;SDS011;33653;52.302;8.134;2022-09-20T05:17:05;6.97;;;1.38;;
47894;SDS011;33653;52.302;8.134;2022-09-20T05:23:24;5.40;;;1.38;;
47894;SDS011;33653;52.302;8.134;2022-09-20T05:27:02;2.25;;;1.40;;
47894;SDS011;33653;52.302;8.134;2022-09-20T05:36:09;5.63;;;1.58;;
47894;SDS011;33653;52.302;8.134;2022-09-20T05:39:06;2.25;;;1.63;;
47894;SDS011;33653;52.302;8.134;2022-09-20T05:44:50;15.45;;;1.98;;
47894;SDS011;33653;52.302;8.134;2022-09-20T06:00:35;6.72;;;1.70;;
47894;SDS011;33653;52.302;8.134;2022-09-20T06:03:29;1.42;;;1.33;;
47894;SDS011;33653;52.302;8.134;2022-09-20T06:06:11;6.15;;;2.13;;
47894;SDS011;33653;52.302;8.134;2022-09-20T06:17:44;9.77;;;1.98;;
47894;SDS011;33653;52.302;8.134;2022-09-20T06:20:55;3.58;;;1.67;;
47894;SDS011;33653;52.302;8.134;2022-09-20T06:23:26;3.50;;;1.70;;
47894;SDS011;33653;52.302;8.134;2022-09-20T06:26:13;1.52;;;1.40;;
47894;SDS011;33653;52.302;8.134;2022-09-20T06:28:46;1.90;;;1.17;;
47894;SDS011;33653;52.302;8.134;2022-09-20T06:31:24;2.00;;;1.42;;
47894;SDS011;33653;52.302;8.134;2022-09-20T06:33:54;3.90;;;1.67;;
47894;SDS011;33653;52.302;8.134;2022-09-20T06:36:37;1.80;;;1.40;;
47894;SDS011;33653;52.302;8.134;2022-09-20T06:42:23;6.90;;;1.42;;
47894;SDS011;33653;52.302;8.134;2022-09-20T06:44:53;2.75;;;1.83;;
47894;SDS011;33653;52.302;8.134;2022-09-20T06:47:21;7.28;;;2.08;;
47894;SDS011;33653;52.302;8.134;2022-09-20T06:49:49;2.28;;;1.70;;
47894;SDS011;33653;52.302;8.134;2022-09-20T06:52:17;2.33;;;1.35;;
47894;SDS011;33653;52.302;8.134;2022-09-20T06:54:49;2.83;;;1.80;;
47894;SDS011;33653;52.302;8.134;2022-09-20T06:57:21;3.17;;;2.08;;
47894;SDS011;33653;52.302;8.134;2022-09-20T06:59:59;2.40;;;1.33;;
47894;SDS011;33653;52.302;8.134;2022-09-20T07:02:28;1.55;;;1.42;;
47894;SDS011;33653;52.302;8.134;2022-09-20T07:04:56;4.47;;;1.67;;
47894;SDS011;33653;52.302;8.134;2022-09-20T07:07:25;3.65;;;1.48;;
47894;SDS011;33653;52.302;8.134;2022-09-20T07:09:52;4.38;;;1.60;;
47894;SDS011;33653;52.302;8.134;2022-09-20T07:12:20;1.42;;;1.33;;
47894;SDS011;33653;52.302;8.134;2022-09-20T07:14:48;4.88;;;2.08;;
47894;SDS011;33653;52.302;8.134;2022-09-20T07:17:16;3.55;;;1.73;;
47894;SDS011;33653;52.302;8.134;2022-09-20T07:19:44;2.72;;;1.60;;
47894;SDS011;33653;52.302;8.134;2022-09-20T07:22:12;1.67;;;1.35;;
47894;SDS011;33653;52.302;8.134;2022-09-20T07:24:40;7.20;;;1.75;;
47894;SDS011;33653;52.302;8.134;2022-09-20T07:27:08;5.40;;;2.10;;
47894;SDS011;33653;52.302;8.134;2022-09-20T07:29:37;4.43;;;1.90;;
47894;SDS011;33653;52.302;8.134;2022-09-20T07:32:06;1.92;;;1.20;;
47894;SDS011;33653;52.302;8.134;2022-09-20T07:34:34;8.57;;;1.20;;
47894;SDS011;33653;52.302;8.134;2022-09-20T07:37:02;2.30;;;1.58;;
47894;SDS011;33653;52.302;8.134;2022-09-20T07:39:30;6.70;;;1.05;;
47894;SDS011;33653;52.302;8.134;2022-09-20T07:41:58;2.88;;;1.30;;
47894;SDS011;33653;52.302;8.134;2022-09-20T07:44:27;5.25;;;1.20;;
47894;SDS011;33653;52.302;8.134;2022-09-20T07:46:56;4.68;;;1.10;;
47894;SDS011;33653;52.302;8.134;2022-09-20T07:49:25;1.50;;;1.08;;
47894;SDS011;33653;52.302;8.134;2022-09-20T07:51:57;2.90;;;1.02;;
47894;SDS011;33653;52.302;8.134;2022-09-20T07:54:25;1.08;;;0.98;;
47894;SDS011;33653;52.302;8.134;2022-09-20T07:56:53;4.68;;;1.27;;
47894;SDS011;33653;52.302;8.134;2022-09-20T07:59:22;2.13;;;1.40;;
47894;SDS011;33653;52.302;8.134;2022-09-20T08:01:50;4.10;;;1.70;;
47894;SDS011;33653;52.302;8.134;2022-09-20T08:04:18;4.72;;;1.58;;
47894;SDS011;33653;52.302;8.134;2022-09-20T08:06:45;2.63;;;1.10;;
47894;SDS011;33653;52.302;8.134;2022-09-20T08:09:13;1.42;;;0.85;;
47894;SDS011;33653;52.302;8.134;2022-09-20T08:11:41;3.15;;;1.17;;
47894;SDS011;33653;52.302;8.134;2022-09-20T08:14:13;4.22;;;1.42;;
47894;SDS011;33653;52.302;8.134;2022-09-20T08:16:46;5.05;;;1.30;;
47894;SDS011;33653;52.302;8.134;2022-09-20T08:19:20;2.50;;;1.70;;
47894;SDS011;33653;52.302;8.134;2022-09-20T08:21:49;2.05;;;1.38;;
47894;SDS011;33653;52.302;8.134;2022-09-20T08:27:14;7.72;;;1.10;;
47894;SDS011;33653;52.302;8.134;2022-09-20T08:29:42;3.40;;;1.38;;
47894;SDS011;33653;52.302;8.134;2022-09-20T08:32:10;7.25;;;1.27;;
47894;SDS011;33653;52.302;8.134;2022-09-20T08:34:39;3.25;;;1.30;;
47894;SDS011;33653;52.302;8.134;2022-09-20T08:37:07;2.15;;;1.55;;
47894;SDS011;33653;52.302;8.134;2022-09-20T08:39:34;2.55;;;1.40;;
47894;SDS011;33653;52.302;8.134;2022-09-20T08:45:01;3.95;;;1.23;;
47894;SDS011;33653;52.302;8.134;2022-09-20T08:47:50;3.92;;;1.58;;
47894;SDS011;33653;52.302;8.134;2022-09-20T08:50:24;2.33;;;1.00;;
47894;SDS011;33653;52.302;8.134;2022-09-20T08:52:54;6.70;;;1.50;;
47894;SDS011;33653;52.302;8.134;2022-09-20T08:55:27;1.13;;;0.82;;
47894;SDS011;33653;52.302;8.134;2022-09-20T08:58:14;2.65;;;1.25;;
47894;SDS011;33653;52.302;8.134;2022-09-20T09:00:43;1.40;;;0.95;;
47894;SDS011;33653;52.302;8.134;2022-09-20T09:03:13;3.38;;;0.82;;
47894;SDS011;33653;52.302;8.134;2022-09-20T09:05:49;3.70;;;1.00;;
47894;SDS011;33653;52.302;8.134;2022-09-20T09:08:57;3.05;;;0.93;;
47894;SDS011;33653;52.302;8.134;2022-09-20T09:11:19;2.00;;;1.20;;
47894;SDS011;33653;52.302;8.134;2022-09-20T09:13:51;5.00;;;1.13;;
47894;SDS011;33653;52.302;8.134;2022-09-20T09:16:20;2.35;;;1.25;;
47894;SDS011;33653;52.302;8.134;2022-09-20T09:22:10;2.80;;;0.90;;
47894;SDS011;33653;52.302;8.134;2022-09-20T09:24:41;4.95;;;1.35;;
47894;SDS011;33653;52.302;8.134;2022-09-20T09:27:17;3.50;;;0.90;;
47894;SDS011;33653;52.302;8.134;2022-09-20T09:29:49;1.92;;;0.90;;
47894;SDS011;33653;52.302;8.134;2022-09-20T09:32:26;0.85;;;0.85;;
47894;SDS011;33653;52.302;8.134;2022-09-20T09:37:55;1.70;;;0.80;;
47894;SDS011;33653;52.302;8.134;2022-09-20T09:40:28;3.95;;;0.80;;
47894;SDS011;33653;52.302;8.134;2022-09-20T09:42:58;2.97;;;1.02;;
47894;SDS011;33653;52.302;8.134;2022-09-20T09:45:32;0.63;;;0.63;;
47894;SDS011;33653;52.302;8.134;2022-09-20T09:48:25;3.95;;;0.90;;
47894;SDS011;33653;52.302;8.134;2022-09-20T09:51:07;1.38;;;0.73;;
47894;SDS011;33653;52.302;8.134;2022-09-20T09:53:43;0.50;;;0.50;;
47894;SDS011;33653;52.302;8.134;2022-09-20T09:56:35;0.73;;;0.70;;
47894;SDS011;33653;52.302;8.134;2022-09-20T09:59:23;1.85;;;0.55;;
47894;SDS011;33653;52.302;8.134;2022-09-20T10:02:16;1.13;;;0.80;;
47894;SDS011;33653;52.302;8.134;2022-09-20T10:07:34;1.45;;;0.70;;
47894;SDS011;33653;52.302;8.134;2022-09-20T10:13:16;2.75;;;1.00;;
47894;SDS011;33653;52.302;8.134;2022-09-20T10:19:07;1.67;;;0.70;;
47894;SDS011;33653;52.302;8.134;2022-09-20T10:22:07;0.80;;;0.80;;
47894;SDS011;33653;52.302;8.134;2022-09-20T10:27:41;0.75;;;0.65;;
47894;SDS011;33653;52.302;8.134;2022-09-20T10:30:29;3.58;;;1.00;;
47894;SDS011;33653;52.302;8.134;2022-09-20T10:36:28;2.47;;;0.60;;
47894;SDS011;33653;52.302;8.134;2022-09-20T10:39:32;2.25;;;0.70;;
47894;SDS011;33653;52.302;8.134;2022-09-20T10:42:07;3.22;;;0.80;;
47894;SDS011;33653;52.302;8.134;2022-09-20T10:45:58;2.63;;;0.70;;
47894;SDS011;33653;52.302;8.134;2022-09-20T10:52:00;5.47;;;1.00;;
47894;SDS011;33653;52.302;8.134;2022-09-20T11:00:46;3.30;;;0.80;;
47894;SDS011;33653;52.302;8.134;2022-09-20T11:03:43;2.05;;;1.00;;
47894;SDS011;33653;52.302;8.134;2022-09-20T11:09:25;1.60;;;0.73;;
47894;SDS011;33653;52.302;8.134;2022-09-20T11:12:22;2.95;;;0.80;;
47894;SDS011;33653;52.302;8.134;2022-09-20T11:15:23;1.63;;;0.57;;
47894;SDS011;33653;52.302;8.134;2022-09-20T11:18:02;1.00;;;0.90;;
47894;SDS011;33653;52.302;8.134;2022-09-20T11:23:48;1.77;;;0.82;;
47894;SDS011;33653;52.302;8.134;2022-09-20T11:29:01;1.00;;;0.80;;
47894;SDS011;33653;52.302;8.134;2022-09-20T11:31:48;4.43;;;0.88;;
47894;SDS011;33653;52.302;8.134;2022-09-20T11:34:35;6.40;;;0.85;;
47894;SDS011;33653;52.302;8.134;2022-09-20T11:37:14;2.42;;;1.00;;
47894;SDS011;33653;52.302;8.134;2022-09-20T11:42:17;3.22;;;0.93;;
47894;SDS011;33653;52.302;8.134;2022-09-20T11:44:49;1.67;;;0.93;;
47894;SDS011;33653;52.302;8.134;2022-09-20T11:56:29;1.45;;;0.75;;
47894;SDS011;33653;52.302;8.134;2022-09-20T11:59:00;10.50;;;1.38;;
47894;SDS011;33653;52.302;8.134;2022-09-20T12:01:34;1.92;;;0.82;;
47894;SDS011;33653;52.302;8.134;2022-09-20T12:04:08;2.65;;;0.98;;
47894;SDS011;33653;52.302;8.134;2022-09-20T12:07:18;3.95;;;0.80;;
47894;SDS011;33653;52.302;8.134;2022-09-20T12:09:56;2.50;;;0.98;;
47894;SDS011;33653;52.302;8.134;2022-09-20T12:12:42;1.48;;;1.00;;
47894;SDS011;33653;52.302;8.134;2022-09-20T12:15:24;2.20;;;1.00;;
47894;SDS011;33653;52.302;8.134;2022-09-20T12:18:03;6.05;;;0.90;;
47894;SDS011;33653;52.302;8.134;2022-09-20T12:28:53;2.40;;;0.85;;
47894;SDS011;33653;52.302;8.134;2022-09-20T12:32:04;0.63;;;0.50;;
47894;SDS011;33653;52.302;8.134;2022-09-20T12:43:58;0.90;;;0.65;;
47894;SDS011;33653;52.302;8.134;2022-09-20T12:47:19;1.70;;;0.63;;
47894;SDS011;33653;52.302;8.134;2022-09-20T13:00:42;2.42;;;0.65;;
47894;SDS011;33653;52.302;8.134;2022-09-20T13:08:42;2.55;;;0.80;;
47894;SDS011;33653;52.302;8.134;2022-09-20T13:14:29;2.55;;;0.60;;
47894;SDS011;33653;52.302;8.134;2022-09-20T13:17:03;2.58;;;0.60;;
47894;SDS011;33653;52.302;8.134;2022-09-20T13:19:46;1.60;;;0.60;;
47894;SDS011;33653;52.302;8.134;2022-09-20T13:22:21;2.10;;;0.50;;
47894;SDS011;33653;52.302;8.134;2022-09-20T13:24:49;0.35;;;0.35;;
47894;SDS011;33653;52.302;8.134;2022-09-20T13:27:22;1.73;;;0.50;;
47894;SDS011;33653;52.302;8.134;2022-09-20T13:29:56;0.73;;;0.70;;
47894;SDS011;33653;52.302;8.134;2022-09-20T13:32:43;0.85;;;0.50;;
47894;SDS011;33653;52.302;8.134;2022-09-20T13:38:01;0.40;;;0.40;;
47894;SDS011;33653;52.302;8.134;2022-09-20T13:40:34;0.57;;;0.40;;
47894;SDS011;33653;52.302;8.134;2022-09-20T13:43:28;1.55;;;0.52;;
47894;SDS011;33653;52.302;8.134;2022-09-20T13:46:08;0.20;;;0.20;;
47894;SDS011;33653;52.302;8.134;2022-09-20T13:48:38;1.33;;;0.70;;
47894;SDS011;33653;52.302;8.134;2022-09-20T13:51:22;0.73;;;0.30;;
47894;SDS011;33653;52.302;8.134;2022-09-20T13:53:52;1.15;;;0.50;;
47894;SDS011;33653;52.302;8.134;2022-09-20T13:56:21;2.38;;;0.40;;
47894;SDS011;33653;52.302;8.134;2022-09-20T13:58:55;1.25;;;0.50;;
47894;SDS011;33653;52.302;8.134;2022-09-20T14:01:36;1.90;;;0.50;;
47894;SDS011;33653;52.302;8.134;2022-09-20T14:04:06;1.35;;;0.50;;
47894;SDS011;33653;52.302;8.134;2022-09-20T14:06:35;1.27;;;0.40;;
47894;SDS011;33653;52.302;8.134;2022-09-20T14:09:04;0.95;;;0.45;;
47894;SDS011;33653;52.302;8.134;2022-09-20T14:11:37;0.43;;;0.43;;
47894;SDS011;33653;52.302;8.134;2022-09-20T14:14:05;0.20;;;0.20;;
47894;SDS011;33653;52.302;8.134;2022-09-20T14:16:43;1.65;;;0.30;;
47894;SDS011;33653;52.302;8.134;2022-09-20T14:19:13;1.25;;;0.60;;
47894;SDS011;33653;52.302;8.134;2022-09-20T14:21:46;0.40;;;0.40;;
47894;SDS011;33653;52.302;8.134;2022-09-20T14:26:58;1.00;;;0.35;;
47894;SDS011;33653;52.302;8.134;2022-09-20T14:32:45;1.45;;;0.35;;
47894;SDS011;33653;52.302;8.134;2022-09-20T14:37:53;0.90;;;0.38;;
47894;SDS011;33653;52.302;8.134;2022-09-20T14:43:22;1.08;;;0.30;;
47894;SDS011;33653;52.302;8.134;2022-09-20T14:45:58;0.40;;;0.30;;
47894;SDS011;33653;52.302;8.134;2022-09-20T14:48:34;0.47;;;0.30;;
47894;SDS011;33653;52.302;8.134;2022-09-20T14:54:29;0.77;;;0.55;;
47894;SDS011;33653;52.302;8.134;2022-09-20T14:56:37;0.38;;;0.38;;
47894;SDS011;33653;52.302;8.134;2022-09-20T15:01:58;2.33;;;0.50;;
47894;SDS011;33653;52.302;8.134;2022-09-20T15:04:49;1.05;;;0.40;;
47894;SDS011;33653;52.302;8.134;2022-09-20T15:07:22;0.55;;;0.55;;
47894;SDS011;33653;52.302;8.134;2022-09-20T15:09:50;0.60;;;0.60;;
47894;SDS011;33653;52.302;8.134;2022-09-20T15:12:18;0.95;;;0.55;;
47894;SDS011;33653;52.302;8.134;2022-09-20T15:14:47;1.35;;;0.35;;
47894;SDS011;33653;52.302;8.134;2022-09-20T15:17:19;1.08;;;0.43;;
47894;SDS011;33653;52.302;8.134;2022-09-20T15:19:48;2.38;;;0.50;;
47894;SDS011;33653;52.302;8.134;2022-09-20T15:22:16;0.93;;;0.30;;
47894;SDS011;33653;52.302;8.134;2022-09-20T15:24:43;0.30;;;0.30;;
47894;SDS011;33653;52.302;8.134;2022-09-20T15:27:12;1.73;;;0.60;;
47894;SDS011;33653;52.302;8.134;2022-09-20T15:29:41;1.23;;;0.40;;
47894;SDS011;33653;52.302;8.134;2022-09-20T15:32:09;1.50;;;0.63;;
47894;SDS011;33653;52.302;8.134;2022-09-20T15:34:37;0.60;;;0.50;;
47894;SDS011;33653;52.302;8.134;2022-09-20T15:37:05;0.43;;;0.40;;
47894;SDS011;33653;52.302;8.134;2022-09-20T15:39:33;0.57;;;0.50;;
47894;SDS011;33653;52.302;8.134;2022-09-20T15:42:01;1.67;;;0.60;;
47894;SDS011;33653;52.302;8.134;2022-09-20T15:44:29;1.27;;;0.50;;
47894;SDS011;33653;52.302;8.134;2022-09-20T15:46:58;0.68;;;0.55;;
47894;SDS011;33653;52.302;8.134;2022-09-20T15:49:27;0.80;;;0.80;;
47894;SDS011;33653;52.302;8.134;2022-09-20T15:51:56;0.30;;;0.30;;
47894;SDS011;33653;52.302;8.134;2022-09-20T15:54:24;1.13;;;0.70;;
47894;SDS011;33653;52.302;8.134;2022-09-20T15:56:52;0.70;;;0.43;;
47894;SDS011;33653;52.302;8.134;2022-09-20T15:59:20;0.43;;;0.43;;
47894;SDS011;33653;52.302;8.134;2022-09-20T16:01:49;2.15;;;0.70;;
47894;SDS011;33653;52.302;8.134;2022-09-20T16:04:18;1.30;;;0.68;;
47894;SDS011;33653;52.302;8.134;2022-09-20T16:06:47;2.28;;;0.90;;
47894;SDS011;33653;52.302;8.134;2022-09-20T16:09:16;1.60;;;0.77;;
47894;SDS011;33653;52.302;8.134;2022-09-20T16:11:44;1.45;;;0.60;;
47894;SDS011;33653;52.302;8.134;2022-09-20T16:14:13;0.60;;;0.60;;
47894;SDS011;33653;52.302;8.134;2022-09-20T16:16:41;1.45;;;1.30;;
47894;SDS011;33653;52.302;8.134;2022-09-20T16:19:09;0.63;;;0.63;;
47894;SDS011;33653;52.302;8.134;2022-09-20T16:21:44;1.52;;;0.70;;
47894;SDS011;33653;52.302;8.134;2022-09-20T16:27:00;0.73;;;0.50;;
47894;SDS011;33653;52.302;8.134;2022-09-20T16:31:58;0.82;;;0.60;;
47894;SDS011;33653;52.302;8.134;2022-09-20T16:34:30;1.30;;;0.60;;
47894;SDS011;33653;52.302;8.134;2022-09-20T16:37:04;1.33;;;0.90;;
47894;SDS011;33653;52.302;8.134;2022-09-20T16:39:37;1.95;;;0.93;;
47894;SDS011;33653;52.302;8.134;2022-09-20T16:42:06;1.75;;;0.70;;
47894;SDS011;33653;52.302;8.134;2022-09-20T16:44:37;0.85;;;0.50;;
47894;SDS011;33653;52.302;8.134;2022-09-20T16:47:12;0.73;;;0.60;;
47894;SDS011;33653;52.302;8.134;2022-09-20T16:49:48;0.75;;;0.75;;
47894;SDS011;33653;52.302;8.134;2022-09-20T16:52:17;2.55;;;0.77;;
47894;SDS011;33653;52.302;8.134;2022-09-20T16:54:46;1.95;;;0.65;;
47894;SDS011;33653;52.302;8.134;2022-09-20T16:57:14;0.77;;;0.70;;
47894;SDS011;33653;52.302;8.134;2022-09-20T16:59:45;0.70;;;0.60;;
47894;SDS011;33653;52.302;8.134;2022-09-20T17:02:13;1.50;;;0.75;;
47894;SDS011;33653;52.302;8.134;2022-09-20T17:04:41;0.95;;;0.70;;
47894;SDS011;33653;52.302;8.134;2022-09-20T17:07:09;1.60;;;0.90;;
47894;SDS011;33653;52.302;8.134;2022-09-20T17:09:37;1.83;;;0.90;;
47894;SDS011;33653;52.302;8.134;2022-09-20T17:12:05;1.42;;;0.93;;
47894;SDS011;33653;52.302;8.134;2022-09-20T17:14:35;2.20;;;1.13;;
47894;SDS011;33653;52.302;8.134;2022-09-20T17:17:03;1.58;;;1.40;;
47894;SDS011;33653;52.302;8.134;2022-09-20T17:19:31;1.80;;;1.15;;
47894;SDS011;33653;52.302;8.134;2022-09-20T17:21:59;1.73;;;1.00;;
47894;SDS011;33653;52.302;8.134;2022-09-20T17:24:27;1.73;;;1.38;;
47894;SDS011;33653;52.302;8.134;2022-09-20T17:26:55;2.78;;;1.30;;
47894;SDS011;33653;52.302;8.134;2022-09-20T17:29:25;1.20;;;1.00;;
47894;SDS011;33653;52.302;8.134;2022-09-20T17:31:53;1.27;;;0.98;;
47894;SDS011;33653;52.302;8.134;2022-09-20T17:34:25;0.90;;;0.90;;
47894;SDS011;33653;52.302;8.134;2022-09-20T17:36:55;1.52;;;0.90;;
47894;SDS011;33653;52.302;8.134;2022-09-20T17:39:23;2.35;;;1.02;;
47894;SDS011;33653;52.302;8.134;2022-09-20T17:41:51;0.73;;;0.73;;
47894;SDS011;33653;52.302;8.134;2022-09-20T17:44:19;1.90;;;1.13;;
47894;SDS011;33653;52.302;8.134;2022-09-20T17:46:47;3.00;;;1.23;;
47894;SDS011;33653;52.302;8.134;2022-09-20T17:49:17;4.80;;;1.15;;
47894;SDS011;33653;52.302;8.134;2022-09-20T17:51:47;1.77;;;1.40;;
47894;SDS011;33653;52.302;8.134;2022-09-20T17:54:20;2.15;;;1.10;;
47894;SDS011;33653;52.302;8.134;2022-09-20T17:56:50;1.45;;;1.35;;
47894;SDS011;33653;52.302;8.134;2022-09-20T17:59:21;1.30;;;1.20;;
47894;SDS011;33653;52.302;8.134;2022-09-20T18:01:50;3.78;;;1.45;;
47894;SDS011;33653;52.302;8.134;2022-09-20T18:04:20;1.15;;;1.05;;
47894;SDS011;33653;52.302;8.134;2022-09-20T18:06:50;1.10;;;1.00;;
47894;SDS011;33653;52.302;8.134;2022-09-20T18:09:21;2.90;;;1.15;;
47894;SDS011;33653;52.302;8.134;2022-09-20T18:11:51;1.17;;;1.08;;
47894;SDS011;33653;52.302;8.134;2022-09-20T18:14:23;0.73;;;0.73;;
47894;SDS011;33653;52.302;8.134;2022-09-20T18:16:57;1.10;;;0.95;;
47894;SDS011;33653;52.302;8.134;2022-09-20T18:19:27;2.20;;;1.55;;
47894;SDS011;33653;52.302;8.134;2022-09-20T18:21:59;1.75;;;1.20;;
47894;SDS011;33653;52.302;8.134;2022-09-20T18:24:28;2.75;;;1.33;;
47894;SDS011;33653;52.302;8.134;2022-09-20T18:26:57;1.58;;;1.30;;
47894;SDS011;33653;52.302;8.134;2022-09-20T18:29:26;1.35;;;1.23;;
47894;SDS011;33653;52.302;8.134;2022-09-20T18:31:54;2.63;;;1.50;;
47894;SDS011;33653;52.302;8.134;2022-09-20T18:34:24;2.13;;;1.50;;
47894;SDS011;33653;52.302;8.134;2022-09-20T18:36:57;6.75;;;2.88;;
47894;SDS011;33653;52.302;8.134;2022-09-20T18:39:27;5.72;;;2.30;;
47894;SDS011;33653;52.302;8.134;2022-09-20T18:42:01;3.00;;;1.90;;
47894;SDS011;33653;52.302;8.134;2022-09-20T18:44:29;5.07;;;1.73;;
47894;SDS011;33653;52.302;8.134;2022-09-20T18:46:59;2.03;;;1.60;;
47894;SDS011;33653;52.302;8.134;2022-09-20T18:49:30;2.20;;;1.63;;
47894;SDS011;33653;52.302;8.134;2022-09-20T18:51:59;3.70;;;1.75;;
47894;SDS011;33653;52.302;8.134;2022-09-20T18:54:27;2.75;;;1.92;;
47894;SDS011;33653;52.302;8.134;2022-09-20T18:56:59;2.00;;;1.52;;
47894;SDS011;33653;52.302;8.134;2022-09-20T18:59:27;3.50;;;1.50;;
47894;SDS011;33653;52.302;8.134;2022-09-20T19:10:57;4.43;;;1.50;;
47894;SDS011;33653;52.302;8.134;2022-09-20T19:13:35;5.85;;;1.80;;
47894;SDS011;33653;52.302;8.134;2022-09-20T19:21:59;2.67;;;1.90;;
47894;SDS011;33653;52.302;8.134;2022-09-20T19:27:49;2.72;;;1.70;;
47894;SDS011;33653;52.302;8.134;2022-09-20T19:30:18;3.55;;;2.15;;
47894;SDS011;33653;52.302;8.134;2022-09-20T19:32:47;3.00;;;1.73;;
47894;SDS011;33653;52.302;8.134;2022-09-20T19:35:19;2.95;;;1.83;;
47894;SDS011;33653;52.302;8.134;2022-09-20T19:40:50;1.95;;;1.55;;
47894;SDS011;33653;52.302;8.134;2022-09-20T19:43:55;1.80;;;1.67;;
47894;SDS011;33653;52.302;8.134;2022-09-20T19:49:54;5.28;;;1.65;;
47894;SDS011;33653;52.302;8.134;2022-09-20T19:52:30;3.55;;;2.10;;
47894;SDS011;33653;52.302;8.134;2022-09-20T19:54:58;2.83;;;2.03;;
47894;SDS011;33653;52.302;8.134;2022-09-20T19:57:43;3.97;;;2.78;;
47894;SDS011;33653;52.302;8.134;2022-09-20T20:00:16;3.55;;;2.42;;
47894;SDS011;33653;52.302;8.134;2022-09-20T20:02:46;2.35;;;1.65;;
47894;SDS011;33653;52.302;8.134;2022-09-20T20:05:16;2.22;;;2.03;;
47894;SDS011;33653;52.302;8.134;2022-09-20T20:10:25;4.00;;;2.30;;
47894;SDS011;33653;52.302;8.134;2022-09-20T20:13:07;2.78;;;2.05;;
47894;SDS011;33653;52.302;8.134;2022-09-20T20:16:19;2.30;;;1.80;;
47894;SDS011;33653;52.302;8.134;2022-09-20T20:21:47;4.50;;;2.45;;
47894;SDS011;33653;52.302;8.134;2022-09-20T20:24:36;2.45;;;2.05;;
47894;SDS011;33653;52.302;8.134;2022-09-20T20:27:18;5.50;;;2.78;;
47894;SDS011;33653;52.302;8.134;2022-09-20T20:29:46;2.53;;;2.05;;
47894;SDS011;33653;52.302;8.134;2022-09-20T20:32:15;10.43;;;2.70;;
47894;SDS011;33653;52.302;8.134;2022-09-20T20:34:43;2.05;;;1.65;;
47894;SDS011;33653;52.302;8.134;2022-09-20T20:37:11;2.50;;;1.77;;
47894;SDS011;33653;52.302;8.134;2022-09-20T20:39:39;5.25;;;1.98;;
47894;SDS011;33653;52.302;8.134;2022-09-20T20:42:06;3.20;;;1.95;;
47894;SDS011;33653;52.302;8.134;2022-09-20T20:44:38;2.47;;;1.80;;
47894;SDS011;33653;52.302;8.134;2022-09-20T20:47:06;2.78;;;1.75;;
47894;SDS011;33653;52.302;8.134;2022-09-20T20:49:34;3.97;;;1.92;;
47894;SDS011;33653;52.302;8.134;2022-09-20T20:52:02;2.15;;;1.90;;
47894;SDS011;33653;52.302;8.134;2022-09-20T20:54:31;2.53;;;2.33;;
47894;SDS011;33653;52.302;8.134;2022-09-20T20:56:59;4.63;;;2.33;;
47894;SDS011;33653;52.302;8.134;2022-09-20T20:59:29;1.80;;;1.70;;
47894;SDS011;33653;52.302;8.134;2022-09-20T21:01:56;2.00;;;1.60;;
47894;SDS011;33653;52.302;8.134;2022-09-20T21:04:31;2.60;;;1.63;;
47894;SDS011;33653;52.302;8.134;2022-09-20T21:06:59;5.60;;;1.95;;
47894;SDS011;33653;52.302;8.134;2022-09-20T21:09:27;3.08;;;1.65;;
47894;SDS011;33653;52.302;8.134;2022-09-20T21:11:55;1.63;;;1.52;;
47894;SDS011;33653;52.302;8.134;2022-09-20T21:14:23;1.92;;;1.77;;
47894;SDS011;33653;52.302;8.134;2022-09-20T21:16:51;2.65;;;1.75;;
47894;SDS011;33653;52.302;8.134;2022-09-20T21:19:18;2.08;;;1.60;;
47894;SDS011;33653;52.302;8.134;2022-09-20T21:21:48;1.88;;;1.65;;